Time;durP1;ratioP1;P1;durP2;ratioP2;P2;SDS_P1;SDS_P2;PMS_P1;PMS_P2;Temp;Humidity;BMP_temperature;BMP_pressure;BME280_temperature;BME280_humidity;BME280_pressure;Samples;Min_cycle;Max_cycle;Signal;HPM_P1;HPM_P2
2021/01/08 00:00:53;;;;;;;2.77;1.80;;;3.50;97.10;;;;;;5097593;28;20047;-83
2021/01/08 00:03:20;;;;;;;2.47;1.57;;;3.50;97.10;;;;;;5084819;28;20039;-82
2021/01/08 00:05:46;;;;;;;3.03;2.10;;;3.50;97.10;;;;;;5084680;28;20039;-83
2021/01/08 00:08:13;;;;;;;1.83;0.90;;;3.50;97.20;;;;;;5080019;28;20043;-82
2021/01/08 00:10:39;;;;;;;2.20;1.40;;;3.50;97.20;;;;;;5097139;28;20075;-82
2021/01/08 00:13:06;;;;;;;2.50;1.70;;;3.50;97.10;;;;;;5101222;28;20032;-79
2021/01/08 00:15:33;;;;;;;3.23;2.10;;;3.50;97.10;;;;;;5086878;28;20058;-80
2021/01/08 00:17:59;;;;;;;2.30;2.03;;;3.50;97.10;;;;;;5056186;28;20135;-80
2021/01/08 00:20:26;;;;;;;2.00;1.40;;;3.50;97.10;;;;;;5087695;28;20035;-81
2021/01/08 00:22:52;;;;;;;2.60;1.50;;;3.50;97.10;;;;;;5085332;28;20047;-79
2021/01/08 00:25:19;;;;;;;2.83;1.87;;;3.50;97.10;;;;;;5071886;28;20492;-79
2021/01/08 00:27:45;;;;;;;3.73;1.67;;;3.50;97.10;;;;;;5055280;28;20046;-78
2021/01/08 00:30:13;;;;;;;2.03;1.37;;;3.60;97.10;;;;;;5097529;28;20051;-78
2021/01/08 00:32:39;;;;;;;2.47;1.80;;;3.60;97.10;;;;;;5102450;28;20058;-80
2021/01/08 00:35:07;;;;;;;2.80;1.53;;;3.60;97.10;;;;;;5087002;27;20493;-79
2021/01/08 00:37:34;;;;;;;2.40;1.50;;;3.60;97.10;;;;;;5087650;27;20050;-79
2021/01/08 00:40:00;;;;;;;2.50;1.80;;;3.60;97.00;;;;;;5089755;27;20046;-79
2021/01/08 00:42:27;;;;;;;4.13;1.33;;;3.60;97.00;;;;;;5089178;27;20470;-79
2021/01/08 00:44:53;;;;;;;3.43;1.60;;;3.50;97.00;;;;;;5054356;27;20402;-79
2021/01/08 00:47:20;;;;;;;2.27;1.57;;;3.50;97.00;;;;;;5072783;27;20036;-80
2021/01/08 00:49:46;;;;;;;2.30;1.10;;;3.50;97.00;;;;;;5071930;27;20054;-81
2021/01/08 00:52:13;;;;;;;2.90;1.57;;;3.50;97.00;;;;;;5074532;27;21180;-79
2021/01/08 00:54:43;;;;;;;2.37;1.10;;;3.50;97.10;;;;;;5088184;27;20367;-80
2021/01/08 00:57:27;;;;;;;3.30;1.50;;;3.50;97.20;;;;;;5078734;27;20409;-81
2021/01/08 00:59:54;;;;;;;3.20;1.67;;;3.50;97.10;;;;;;5087156;27;20031;-82
2021/01/08 01:02:20;;;;;;;2.53;1.53;;;3.50;97.10;;;;;;5057565;27;20043;-80
2021/01/08 01:04:47;;;;;;;2.43;1.27;;;3.50;97.10;;;;;;5075479;27;20043;-81
2021/01/08 01:07:13;;;;;;;1.70;1.00;;;3.60;97.10;;;;;;5101939;27;20118;-80
2021/01/08 01:09:40;;;;;;;3.70;1.30;;;3.60;97.10;;;;;;5056113;27;20043;-78
2021/01/08 01:12:07;;;;;;;2.20;1.10;;;3.60;97.10;;;;;;5109665;27;20034;-79
2021/01/08 01:14:33;;;;;;;2.50;0.93;;;3.60;97.10;;;;;;5091918;27;20501;-78
2021/01/08 01:17:04;;;;;;;2.93;1.10;;;3.60;97.10;;;;;;5093294;27;20062;-79
2021/01/08 01:19:30;;;;;;;3.53;1.20;;;3.60;97.10;;;;;;5070889;27;20038;-80
2021/01/08 01:21:57;;;;;;;4.07;1.33;;;3.60;97.10;;;;;;5091649;27;20050;-78
2021/01/08 01:24:24;;;;;;;2.03;1.10;;;3.70;97.10;;;;;;5106108;27;20058;-79
2021/01/08 01:26:56;;;;;;;2.93;1.73;;;3.70;97.00;;;;;;5110017;27;20039;-78
2021/01/08 01:29:23;;;;;;;4.03;1.20;;;3.70;97.00;;;;;;5088631;27;20059;-81
2021/01/08 01:31:50;;;;;;;3.27;2.00;;;3.60;97.00;;;;;;5075302;27;20050;-81
2021/01/08 01:34:18;;;;;;;4.10;1.73;;;3.70;97.00;;;;;;5059685;27;20119;-81
2021/01/08 01:36:45;;;;;;;3.07;1.40;;;3.70;97.00;;;;;;5071667;27;20080;-81
2021/01/08 01:39:13;;;;;;;2.57;1.30;;;3.60;96.90;;;;;;5108802;27;20485;-81
2021/01/08 01:41:41;;;;;;;2.40;1.37;;;3.60;96.90;;;;;;5075827;27;20043;-81
2021/01/08 01:44:07;;;;;;;2.03;1.23;;;3.60;97.00;;;;;;5077439;27;20039;-81
2021/01/08 01:46:34;;;;;;;2.53;1.63;;;3.60;97.10;;;;;;5061708;27;20039;-81
2021/01/08 01:49:00;;;;;;;2.20;1.17;;;3.60;97.10;;;;;;5108028;27;20039;-81
2021/01/08 01:51:27;;;;;;;4.23;1.60;;;3.60;97.10;;;;;;5042696;27;20035;-80
2021/01/08 01:53:54;;;;;;;1.80;1.10;;;3.60;97.10;;;;;;5059733;27;20035;-81
2021/01/08 01:56:20;;;;;;;4.13;1.40;;;3.60;97.10;;;;;;5059303;27;20057;-82
2021/01/08 01:58:47;;;;;;;2.20;1.40;;;3.60;97.10;;;;;;5092181;27;20053;-83
2021/01/08 02:01:14;;;;;;;2.87;1.33;;;3.60;97.00;;;;;;5075412;27;20480;-83
2021/01/08 02:03:47;;;;;;;2.00;1.13;;;3.60;97.00;;;;;;5070773;27;20043;-83
2021/01/08 02:06:18;;;;;;;4.37;1.63;;;3.60;97.10;;;;;;5075555;27;20156;-83
2021/01/08 02:08:49;;;;;;;2.30;1.30;;;3.60;97.10;;;;;;5107536;27;20043;-83
2021/01/08 02:11:22;;;;;;;3.23;1.53;;;3.60;97.00;;;;;;5126274;27;20050;-83
2021/01/08 02:13:55;;;;;;;3.10;1.30;;;3.60;97.00;;;;;;5091902;27;20150;-83
2021/01/08 02:16:22;;;;;;;;;;;3.60;97.10;;;;;;5093657;27;20042;-83
2021/01/08 02:18:52;;;;;;;1.90;0.90;;;3.60;97.00;;;;;;5092133;27;19922;-83
2021/01/08 02:21:44;;;;;;;1.83;1.30;;;3.60;97.00;;;;;;5106709;27;20070;-83
2021/01/08 02:24:18;;;;;;;2.17;1.13;;;3.60;97.10;;;;;;5055709;27;20374;-83
2021/01/08 02:26:46;;;;;;;1.70;0.93;;;3.60;97.10;;;;;;5109630;27;20039;-83
2021/01/08 02:29:13;;;;;;;2.70;1.67;;;3.60;97.00;;;;;;5125512;27;20047;-83
2021/01/08 02:31:40;;;;;;;2.80;1.30;;;3.60;97.00;;;;;;5091334;27;20046;-83
2021/01/08 02:34:07;;;;;;;3.97;2.17;;;3.60;97.00;;;;;;5092631;27;20118;-83
2021/01/08 02:36:39;;;;;;;2.20;1.50;;;3.50;97.00;;;;;;5081622;27;20390;-83
2021/01/08 02:39:07;;;;;;;2.50;1.20;;;3.50;97.00;;;;;;5125155;27;20489;-83
2021/01/08 02:41:36;;;;;;;2.57;1.47;;;3.50;97.10;;;;;;5073212;27;20517;-83
2021/01/08 02:44:03;;;;;;;2.30;1.50;;;3.40;97.10;;;;;;5075589;27;20039;-83
2021/01/08 02:46:30;;;;;;;2.67;1.50;;;3.40;97.10;;;;;;5127732;27;20059;-82
2021/01/08 02:48:56;;;;;;;3.17;1.80;;;3.40;97.10;;;;;;5057096;27;20039;-83
2021/01/08 02:51:23;;;;;;;2.47;1.03;;;3.40;97.20;;;;;;5090534;27;20766;-83
2021/01/08 02:53:51;;;;;;;3.20;1.47;;;3.40;97.20;;;;;;5072240;27;20047;-83
2021/01/08 02:56:28;;;;;;;3.00;1.30;;;3.40;97.20;;;;;;5106619;27;20038;-83
2021/01/08 02:58:55;;;;;;;2.70;1.60;;;3.40;97.20;;;;;;5107064;27;20047;-83
2021/01/08 03:01:23;;;;;;;3.57;1.40;;;3.40;97.20;;;;;;5074856;27;20047;-83
2021/01/08 03:03:50;;;;;;;1.87;1.20;;;3.50;97.20;;;;;;5043117;27;20585;-83
2021/01/08 03:06:17;;;;;;;2.30;1.27;;;3.50;97.20;;;;;;5089970;27;20056;-82
2021/01/08 03:08:44;;;;;;;4.17;1.67;;;3.50;97.10;;;;;;5060458;27;20046;-83
2021/01/08 03:11:11;;;;;;;2.20;1.30;;;3.60;97.10;;;;;;5091910;27;20050;-83
2021/01/08 03:13:39;;;;;;;2.93;1.70;;;3.50;97.10;;;;;;5091780;27;20056;-82
2021/01/08 03:16:06;;;;;;;3.53;1.70;;;3.50;97.10;;;;;;5109535;27;20121;-83
2021/01/08 03:18:33;;;;;;;4.10;1.90;;;3.60;97.20;;;;;;5088683;27;20109;-83
2021/01/08 03:20:59;;;;;;;2.73;1.67;;;3.60;97.20;;;;;;5066782;27;20047;-82
2021/01/08 03:23:26;;;;;;;5.13;1.67;;;3.60;97.10;;;;;;5090836;27;20035;-83
2021/01/08 03:25:53;;;;;;;3.33;1.63;;;3.60;97.10;;;;;;5042582;27;20080;-83
2021/01/08 03:28:19;;;;;;;2.93;1.90;;;3.60;97.10;;;;;;5039561;27;20047;-83
2021/01/08 03:30:46;;;;;;;2.27;1.53;;;3.60;97.10;;;;;;5072621;28;20473;-83
2021/01/08 03:33:12;;;;;;;3.43;2.17;;;3.60;97.00;;;;;;5074070;28;20036;-83
2021/01/08 03:35:39;;;;;;;3.17;2.00;;;3.60;97.10;;;;;;5059102;27;20036;-83
2021/01/08 03:38:06;;;;;;;3.17;2.27;;;3.60;97.10;;;;;;5077254;27;20034;-82
2021/01/08 03:40:40;;;;;;;4.07;2.20;;;3.60;97.10;;;;;;5068306;27;20027;-82
2021/01/08 03:43:08;;;;;;;3.57;2.47;;;3.60;97.10;;;;;;5068364;28;20030;-83
2021/01/08 03:45:35;;;;;;;3.80;2.10;;;3.60;97.10;;;;;;5111836;28;20035;-83
2021/01/08 03:48:02;;;;;;;2.13;1.50;;;3.70;97.10;;;;;;5092645;28;20039;-83
2021/01/08 03:50:29;;;;;;;2.57;1.33;;;3.70;97.10;;;;;;5089943;28;20046;-82
2021/01/08 03:52:56;;;;;;;3.30;1.83;;;3.70;97.10;;;;;;5063340;28;20031;-83
2021/01/08 03:55:23;;;;;;;2.87;1.73;;;3.70;97.00;;;;;;5041096;28;20031;-83
2021/01/08 03:57:49;;;;;;;3.40;1.77;;;3.70;97.00;;;;;;5086057;28;20053;-83
2021/01/08 04:00:16;;;;;;;2.10;1.20;;;3.70;97.00;;;;;;5040024;28;20101;-83
2021/01/08 04:02:43;;;;;;;2.97;1.83;;;3.70;97.10;;;;;;5074577;28;20047;-83
2021/01/08 04:05:10;;;;;;;2.83;2.00;;;3.70;97.00;;;;;;5041841;28;20047;-82
2021/01/08 04:07:36;;;;;;;4.20;1.83;;;3.70;97.00;;;;;;5075073;28;20050;-83
2021/01/08 04:10:03;;;;;;;2.83;1.93;;;3.70;97.00;;;;;;5072312;27;20039;-83
2021/01/08 04:12:30;;;;;;;2.70;1.87;;;3.70;97.00;;;;;;5093893;27;20054;-83
2021/01/08 04:14:56;;;;;;;3.90;2.23;;;3.70;97.00;;;;;;5061334;27;20047;-83
2021/01/08 04:17:22;;;;;;;3.40;1.60;;;3.60;97.00;;;;;;5062180;27;20046;-83
2021/01/08 04:19:49;;;;;;;3.53;2.10;;;3.60;97.00;;;;;;5060166;27;20042;-83
2021/01/08 04:22:15;;;;;;;3.23;1.87;;;3.60;97.00;;;;;;5072812;27;20051;-83
2021/01/08 04:24:42;;;;;;;2.90;1.30;;;3.60;97.00;;;;;;5094566;27;20051;-83
2021/01/08 04:27:08;;;;;;;7.67;2.10;;;3.60;97.00;;;;;;5094704;27;20051;-83
2021/01/08 04:29:35;;;;;;;2.90;1.87;;;3.60;97.10;;;;;;5060157;27;20401;-83
2021/01/08 04:32:01;;;;;;;3.03;1.50;;;3.60;97.10;;;;;;5061860;27;20051;-83
2021/01/08 04:34:28;;;;;;;3.67;1.67;;;3.60;97.10;;;;;;5062219;27;20035;-82
2021/01/08 04:36:54;;;;;;;3.50;2.40;;;3.60;97.10;;;;;;5076071;27;20035;-83
2021/01/08 04:39:21;;;;;;;5.27;2.23;;;3.60;97.10;;;;;;5092994;27;20046;-81
2021/01/08 04:41:48;;;;;;;2.80;1.83;;;3.60;97.10;;;;;;5077663;27;20050;-81
2021/01/08 04:44:15;;;;;;;4.83;2.77;;;3.60;97.10;;;;;;5112187;27;20039;-81
2021/01/08 04:46:43;;;;;;;3.53;1.90;;;3.60;97.10;;;;;;5078324;27;20055;-81
2021/01/08 04:49:10;;;;;;;5.53;2.10;;;3.60;97.10;;;;;;5092722;27;20055;-81
2021/01/08 04:51:37;;;;;;;3.50;2.57;;;3.60;97.00;;;;;;5061604;27;20031;-81
2021/01/08 04:54:05;;;;;;;3.50;2.50;;;3.60;97.00;;;;;;5077995;27;20039;-81
2021/01/08 04:56:38;;;;;;;3.30;2.40;;;3.60;97.00;;;;;;5111509;27;20051;-81
2021/01/08 04:59:04;;;;;;;4.27;3.30;;;3.60;97.00;;;;;;5093066;27;20034;-81
2021/01/08 05:01:31;;;;;;;5.70;4.03;;;3.60;97.00;;;;;;5111495;27;20066;-81
2021/01/08 05:03:57;;;;;;;4.93;3.57;;;3.60;97.00;;;;;;5078335;27;20635;-80
2021/01/08 05:06:24;;;;;;;6.13;3.90;;;3.60;97.00;;;;;;5077923;27;20039;-81
2021/01/08 05:08:50;;;;;;;5.53;3.33;;;3.60;97.10;;;;;;5060487;27;20030;-80
2021/01/08 05:11:26;;;;;;;7.07;3.97;;;3.60;97.10;;;;;;5077261;27;20039;-81
2021/01/08 05:13:53;;;;;;;6.40;4.60;;;3.60;97.10;;;;;;5091914;27;20050;-80
2021/01/08 05:16:21;;;;;;;5.23;4.07;;;3.60;97.00;;;;;;5078001;27;20050;-80
2021/01/08 05:18:49;;;;;;;3.33;2.63;;;3.60;97.00;;;;;;5093412;27;20039;-80
2021/01/08 05:21:17;;;;;;;4.93;3.60;;;3.60;97.00;;;;;;5078650;28;20036;-80
2021/01/08 05:23:43;;;;;;;5.97;3.43;;;3.60;97.00;;;;;;5129617;27;20042;-80
2021/01/08 05:26:14;;;;;;;5.60;3.23;;;3.60;97.00;;;;;;5093405;27;20050;-80
2021/01/08 05:28:50;;;;;;;4.10;2.90;;;3.60;97.10;;;;;;5109126;27;20047;-80
2021/01/08 05:31:18;;;;;;;5.30;4.03;;;3.60;97.10;;;;;;5075663;27;20046;-81
2021/01/08 05:33:45;;;;;;;5.63;3.40;;;3.60;97.00;;;;;;5109345;27;20518;-81
2021/01/08 05:36:12;;;;;;;5.73;2.97;;;3.60;97.00;;;;;;5094209;27;20043;-83
2021/01/08 05:38:47;;;;;;;4.23;2.87;;;3.60;97.00;;;;;;5060290;27;20051;-83
2021/01/08 05:41:16;;;;;;;3.50;2.33;;;3.60;97.00;;;;;;5083347;27;20034;-81
2021/01/08 05:43:45;;;;;;;4.50;2.90;;;3.60;97.00;;;;;;5072357;27;20043;-82
2021/01/08 05:46:14;;;;;;;3.93;3.00;;;3.60;97.00;;;;;;5078463;27;20050;-80
2021/01/08 05:48:50;;;;;;;3.83;2.83;;;3.60;97.00;;;;;;5092776;27;20080;-83
2021/01/08 05:51:20;;;;;;;3.40;2.23;;;3.60;97.00;;;;;;5091818;27;20480;-83
2021/01/08 05:53:48;;;;;;;5.03;3.70;;;3.60;97.10;;;;;;5077367;27;20031;-83
2021/01/08 05:56:16;;;;;;;3.87;2.70;;;3.60;97.10;;;;;;5093007;27;20030;-81
2021/01/08 05:58:44;;;;;;;5.87;3.23;;;3.60;97.00;;;;;;5092421;27;20409;-79
2021/01/08 06:01:12;;;;;;;5.23;3.10;;;3.70;97.10;;;;;;5110910;27;20034;-83
2021/01/08 06:03:41;;;;;;;3.87;2.77;;;3.70;97.00;;;;;;5076407;27;20044;-84
2021/01/08 06:06:08;;;;;;;5.40;2.50;;;3.60;97.00;;;;;;5092648;27;20038;-84
2021/01/08 06:08:45;;;;;;;3.47;2.87;;;3.60;97.00;;;;;;5091531;27;20050;-84
2021/01/08 06:11:16;;;;;;;4.37;2.87;;;3.60;97.00;;;;;;5081579;27;20035;-83
2021/01/08 06:13:44;;;;;;;3.13;2.20;;;3.70;97.10;;;;;;5093473;27;20058;-83
2021/01/08 06:16:17;;;;;;;5.73;3.60;;;3.70;97.10;;;;;;5092859;27;20397;-84
2021/01/08 06:18:48;;;;;;;4.03;2.97;;;3.70;97.00;;;;;;5090985;27;20062;-84
2021/01/08 06:21:15;;;;;;;4.37;2.70;;;3.70;97.00;;;;;;5065588;27;20121;-82
2021/01/08 06:23:43;;;;;;;2.73;1.63;;;3.70;97.00;;;;;;5092854;27;20035;-83
2021/01/08 06:26:17;;;;;;;3.33;1.93;;;3.80;97.00;;;;;;5092539;27;20046;-83
2021/01/08 06:28:46;;;;;;;2.83;1.90;;;3.80;97.00;;;;;;5042684;27;20031;-83
2021/01/08 06:31:24;;;;;;;3.53;2.43;;;3.80;97.00;;;;;;5107019;27;20047;-81
2021/01/08 06:33:56;;;;;;;4.03;2.20;;;3.80;97.00;;;;;;5077252;27;20032;-81
2021/01/08 06:36:26;;;;;;;3.45;2.60;;;3.80;97.00;;;;;;5088860;27;20051;-81
2021/01/08 06:38:57;;;;;;;6.63;3.57;;;3.80;97.00;;;;;;5107856;27;20417;-81
2021/01/08 06:41:25;;;;;;;4.30;2.90;;;3.80;96.90;;;;;;5091625;27;20036;-81
2021/01/08 06:44:00;;;;;;;4.57;3.17;;;3.80;96.90;;;;;;5108026;27;20058;-81
2021/01/08 06:46:32;;;;;;;5.00;3.00;;;3.80;96.90;;;;;;5071528;27;20046;-81
2021/01/08 06:49:00;;;;;;;5.05;4.03;;;3.80;96.90;;;;;;5081492;27;20363;-81
2021/01/08 06:51:32;;;;;;;9.07;3.30;;;3.80;96.90;;;;;;5090769;27;20034;-81
2021/01/08 06:54:09;;;;;;;4.30;2.73;;;3.80;97.00;;;;;;5090097;27;20059;-81
2021/01/08 06:56:41;;;;;;;4.77;3.37;;;3.80;97.00;;;;;;5075345;27;20032;-81
2021/01/08 06:59:17;;;;;;;4.83;3.20;;;3.80;97.00;;;;;;5074663;27;20047;-81
2021/01/08 07:01:53;;;;;;;5.33;3.80;;;3.80;97.00;;;;;;5108772;27;20043;-82
2021/01/08 07:04:40;;;;;;;32.13;19.53;;;3.80;97.00;;;;;;5093108;27;20035;-81
2021/01/08 07:07:26;;;;;;;18.20;12.37;;;3.70;97.00;;;;;;5076408;27;20072;-82
2021/01/08 07:09:54;;;;;;;10.33;6.80;;;3.70;97.00;;;;;;5073808;27;20951;-82
2021/01/08 07:12:25;;;;;;;7.83;4.60;;;3.70;97.00;;;;;;5106320;27;20035;-83
2021/01/08 07:14:54;;;;;;;7.07;4.07;;;3.70;97.00;;;;;;5102334;27;20477;-82
2021/01/08 07:17:32;;;;;;;4.80;3.63;;;3.70;97.10;;;;;;5096429;27;20038;-82
2021/01/08 07:20:01;;;;;;;4.70;2.90;;;3.70;97.00;;;;;;5105947;27;20054;-82
2021/01/08 07:22:40;;;;;;;5.40;3.67;;;3.80;97.10;;;;;;5092415;27;20055;-81
2021/01/08 07:25:14;;;;;;;4.37;2.70;;;3.70;97.10;;;;;;5094775;27;20050;-81
2021/01/08 07:27:42;;;;;;;4.57;3.20;;;3.70;97.00;;;;;;5087106;27;21478;-81
2021/01/08 07:30:10;;;;;;;4.90;3.33;;;3.70;97.10;;;;;;5072472;28;20229;-81
2021/01/08 07:32:36;;;;;;;4.03;2.53;;;3.70;97.00;;;;;;5093013;27;20058;-81
2021/01/08 07:35:25;;;;;;;4.53;3.10;;;3.70;97.10;;;;;;5109297;27;20027;-81
2021/01/08 07:38:03;;;;;;;3.80;3.30;;;3.70;97.10;;;;;;5089694;27;20050;-81
2021/01/08 07:40:49;;;;;;;5.80;3.70;;;3.70;97.10;;;;;;5085151;28;20157;-81
2021/01/08 07:43:17;;;;;;;6.60;3.93;;;3.70;97.10;;;;;;5073735;27;20038;-81
2021/01/08 07:45:57;;;;;;;4.30;3.23;;;3.70;97.00;;;;;;5075791;27;20039;-81
2021/01/08 07:48:27;;;;;;;4.80;2.97;;;3.70;97.10;;;;;;5073892;28;20035;-81
2021/01/08 07:51:04;;;;;;;15.33;9.83;;;3.70;97.10;;;;;;5084413;28;20040;-80
2021/01/08 07:53:47;;;;;;;14.03;9.80;;;3.70;97.10;;;;;;5088247;28;20051;-82
2021/01/08 07:56:24;;;;;;;10.00;6.15;;;3.70;97.10;;;;;;5083822;28;20054;-83
2021/01/08 07:59:03;;;;;;;5.67;3.83;;;3.70;97.10;;;;;;5080863;28;20039;-81
2021/01/08 08:01:34;;;;;;;5.40;3.63;;;3.70;97.00;;;;;;5091529;28;20035;-81
2021/01/08 08:04:03;;;;;;;5.37;3.77;;;3.80;97.10;;;;;;5108624;28;20042;-82
2021/01/08 08:06:31;;;;;;;7.33;3.30;;;3.80;97.10;;;;;;5076628;28;20031;-82
2021/01/08 08:09:02;;;;;;;3.43;2.13;;;3.70;97.30;;;;;;5072609;28;20035;-81
2021/01/08 08:11:32;;;;;;;3.80;2.53;;;3.70;97.00;;;;;;5106919;28;20043;-81
2021/01/08 08:13:59;;;;;;;4.70;3.00;;;3.70;97.00;;;;;;5090219;28;20043;-81
2021/01/08 08:16:36;;;;;;;5.17;3.67;;;3.70;97.00;;;;;;5090296;28;20035;-81
2021/01/08 08:19:04;;;;;;;7.30;3.70;;;3.70;97.10;;;;;;5098579;28;20031;-81
2021/01/08 08:21:31;;;;;;;6.40;3.97;;;3.70;97.30;;;;;;5057859;28;20035;-81
2021/01/08 08:24:03;;;;;;;4.83;3.30;;;3.80;97.10;;;;;;5091545;28;20051;-81
2021/01/08 08:26:33;;;;;;;5.27;3.67;;;3.80;97.10;;;;;;5074397;28;20039;-81
2021/01/08 08:29:06;;;;;;;5.20;2.63;;;3.80;97.10;;;;;;5090758;28;20282;-81
2021/01/08 08:31:36;;;;;;;3.95;2.35;;;3.80;97.10;;;;;;5074381;28;20034;-81
2021/01/08 08:34:04;;;;;;;3.33;2.23;;;3.80;97.10;;;;;;5091605;28;20046;-82
2021/01/08 08:36:32;;;;;;;3.37;2.17;;;3.80;97.10;;;;;;5041726;28;20685;-82
2021/01/08 08:39:05;;;;;;;3.23;2.13;;;3.80;97.10;;;;;;5090316;28;20039;-81
2021/01/08 08:41:33;;;;;;;4.23;2.93;;;3.80;97.10;;;;;;5083550;28;20054;-81
2021/01/08 08:44:11;;;;;;;3.37;2.27;;;3.90;97.10;;;;;;5076827;28;20035;-83
2021/01/08 08:47:04;;;;;;;5.03;2.57;;;3.90;97.10;;;;;;5099559;28;20836;-83
2021/01/08 08:49:33;;;;;;;5.78;2.72;;;3.90;97.10;;;;;;5078868;28;20378;-81
2021/01/08 08:52:01;;;;;;;5.33;2.90;;;3.90;97.10;;;;;;5105722;28;20035;-81
2021/01/08 08:54:28;;;;;;;4.87;3.33;;;3.90;97.10;;;;;;5105063;28;20035;-81
2021/01/08 08:57:02;;;;;;;4.00;2.57;;;3.90;97.00;;;;;;5126988;27;20039;-82
2021/01/08 08:59:35;;;;;;;3.70;2.80;;;3.90;97.00;;;;;;5090210;27;20043;-81
2021/01/08 09:02:03;;;;;;;2.57;1.90;;;3.90;97.00;;;;;;5091106;27;20050;-81
2021/01/08 09:04:29;;;;;;;4.93;3.47;;;4.00;97.10;;;;;;5110070;27;20474;-81
2021/01/08 09:07:00;;;;;;;4.30;2.73;;;4.00;97.00;;;;;;5084821;27;20394;-81
2021/01/08 09:09:37;;;;;;;4.63;3.27;;;3.90;97.00;;;;;;5075632;27;20042;-81
2021/01/08 09:12:15;;;;;;;5.13;3.07;;;4.00;97.00;;;;;;5110423;27;20058;-82
2021/01/08 09:14:44;;;;;;;4.67;3.20;;;4.00;96.90;;;;;;5079332;27;20051;-81
2021/01/08 09:17:21;;;;;;;4.90;3.13;;;4.00;96.90;;;;;;5097160;27;20035;-84
2021/01/08 09:19:55;;;;;;;4.10;3.00;;;4.00;97.00;;;;;;5106632;27;20405;-82
2021/01/08 09:22:23;;;;;;;3.40;2.40;;;4.00;97.00;;;;;;5090528;27;20047;-82
2021/01/08 09:24:50;;;;;;;3.10;1.90;;;4.10;96.90;;;;;;5091421;27;20050;-81
2021/01/08 09:27:17;;;;;;;2.73;1.50;;;4.10;96.80;;;;;;5092723;27;20512;-81
2021/01/08 09:29:44;;;;;;;3.40;2.13;;;4.10;96.80;;;;;;5090477;27;20789;-82
2021/01/08 09:32:10;;;;;;;4.03;2.30;;;4.10;96.80;;;;;;5072394;27;20035;-81
2021/01/08 09:34:37;;;;;;;3.80;1.90;;;4.20;96.80;;;;;;5042177;27;20055;-82
2021/01/08 09:37:16;;;;;;;3.87;1.90;;;4.20;96.70;;;;;;5073651;27;20043;-82
2021/01/08 09:39:43;;;;;;;3.17;2.13;;;4.20;96.70;;;;;;5074141;27;20062;-81
2021/01/08 09:42:11;;;;;;;3.33;1.93;;;4.30;96.60;;;;;;5078689;27;20035;-82
2021/01/08 09:44:40;;;;;;;3.20;1.93;;;4.30;96.60;;;;;;5107784;27;20039;-81
2021/01/08 09:47:09;;;;;;;2.47;1.40;;;4.30;96.50;;;;;;5087189;27;20402;-77
2021/01/08 09:49:41;;;;;;;2.23;1.30;;;4.30;96.40;;;;;;5122098;27;20039;-78
2021/01/08 09:52:10;;;;;;;2.90;1.92;;;4.40;96.50;;;;;;5075208;27;20508;-80
2021/01/08 09:54:40;;;;;;;4.10;1.10;;;4.40;96.50;;;;;;5099636;27;20043;-78
2021/01/08 09:57:07;;;;;;;2.43;1.40;;;4.50;96.40;;;;;;5101779;27;20046;-77
2021/01/08 09:59:34;;;;;;;2.20;1.15;;;4.50;96.40;;;;;;5072167;27;20053;-78
2021/01/08 10:02:10;;;;;;;7.60;3.67;;;4.50;96.30;;;;;;5106147;27;20031;-79
2021/01/08 10:04:36;;;;;;;13.73;8.60;;;4.50;96.30;;;;;;5072431;27;20032;-79
2021/01/08 10:07:05;;;;;;;9.60;5.17;;;4.60;96.20;;;;;;5087033;28;20062;-78
2021/01/08 10:09:51;;;;;;;3.10;1.87;;;4.60;96.10;;;;;;5082986;27;20046;-83
2021/01/08 10:12:19;;;;;;;2.53;1.07;;;4.50;95.90;;;;;;5103557;27;20034;-82
2021/01/08 10:14:46;;;;;;;2.80;1.13;;;4.50;96.00;;;;;;5123585;27;20509;-83
2021/01/08 10:17:15;;;;;;;2.07;1.07;;;4.50;96.00;;;;;;5059889;27;20035;-83
2021/01/08 10:19:44;;;;;;;2.33;0.88;;;4.60;96.00;;;;;;5123332;27;20050;-84
2021/01/08 10:22:10;;;;;;;1.80;0.87;;;4.60;96.00;;;;;;5086373;27;20817;-84
2021/01/08 10:24:37;;;;;;;2.23;1.07;;;4.60;95.90;;;;;;5089362;27;20035;-82
2021/01/08 10:27:05;;;;;;;1.70;1.03;;;4.50;95.80;;;;;;5106755;27;20057;-83
2021/01/08 10:29:39;;;;;;;2.30;1.20;;;4.50;95.90;;;;;;5092732;27;20043;-83
2021/01/08 10:32:13;;;;;;;1.90;1.00;;;4.50;95.90;;;;;;5107645;27;20045;-83
2021/01/08 10:34:42;;;;;;;2.63;1.47;;;4.50;95.90;;;;;;5108392;27;20053;-86
2021/01/08 10:37:20;;;;;;;2.87;1.97;;;4.50;95.90;;;;;;5109141;27;20030;-83
2021/01/08 10:39:47;;;;;;;2.42;1.33;;;4.60;95.90;;;;;;5090832;27;21131;-89
2021/01/08 10:42:16;;;;;;;2.50;1.27;;;4.60;95.90;;;;;;5074355;27;20055;-87
2021/01/08 10:44:44;;;;;;;2.00;1.17;;;4.60;95.90;;;;;;5072360;27;20054;-84
2021/01/08 10:47:12;;;;;;;2.23;1.00;;;4.70;96.00;;;;;;5083965;27;20385;-79
2021/01/08 10:49:38;;;;;;;1.83;1.00;;;4.80;96.20;;;;;;5052898;27;20512;-78
2021/01/08 10:52:09;;;;;;;2.57;1.10;;;4.90;95.80;;;;;;5070330;27;20043;-78
2021/01/08 10:54:35;;;;;;;3.60;1.80;;;4.90;95.70;;;;;;5068806;27;20035;-78
2021/01/08 10:57:02;;;;;;;4.20;1.50;;;4.90;95.70;;;;;;5074366;27;20043;-78
2021/01/08 10:59:28;;;;;;;2.08;1.20;;;5.00;95.70;;;;;;5064876;27;20035;-77
2021/01/08 11:01:55;;;;;;;1.95;1.20;;;5.10;95.60;;;;;;5071811;27;20053;-78
2021/01/08 11:04:21;;;;;;;2.70;1.38;;;5.10;95.50;;;;;;5072663;27;20050;-78
2021/01/08 11:06:48;;;;;;;2.38;1.35;;;5.10;95.40;;;;;;5091226;27;20039;-78
2021/01/08 11:09:15;;;;;;;2.45;1.10;;;5.00;95.40;;;;;;5124130;27;20047;-78
2021/01/08 11:11:42;;;;;;;2.35;1.27;;;5.10;95.50;;;;;;5072218;27;20410;-78
2021/01/08 11:14:08;;;;;;;2.40;1.50;;;5.00;95.40;;;;;;5072336;27;20513;-78
2021/01/08 11:16:35;;;;;;;2.80;1.23;;;5.00;95.20;;;;;;5086443;27;20023;-78
2021/01/08 11:19:01;;;;;;;2.78;1.20;;;4.90;95.30;;;;;;5101978;27;20371;-78
2021/01/08 11:21:28;;;;;;;2.63;1.50;;;4.90;95.40;;;;;;5105008;27;20038;-78
2021/01/08 11:23:54;;;;;;;2.47;1.65;;;4.80;95.30;;;;;;5104586;27;20039;-77
2021/01/08 11:26:28;;;;;;;2.90;1.80;;;4.80;95.30;;;;;;5124020;27;20058;-80
2021/01/08 11:28:58;;;;;;;11.70;8.02;;;4.80;95.30;;;;;;5089029;27;20035;-78
2021/01/08 11:31:35;;;;;;;30.70;19.58;;;4.80;95.30;;;;;;5088584;27;20035;-78
2021/01/08 11:34:07;;;;;;;25.53;17.43;;;4.80;95.30;;;;;;5088154;28;20032;-79
2021/01/08 11:36:34;;;;;;;12.50;7.97;;;4.70;95.20;;;;;;5087758;28;20030;-78
2021/01/08 11:39:01;;;;;;;5.68;3.35;;;4.70;95.30;;;;;;5082477;27;20040;-78
2021/01/08 11:41:28;;;;;;;3.58;2.53;;;4.70;95.30;;;;;;5069450;28;20481;-78
2021/01/08 11:43:54;;;;;;;3.27;2.37;;;4.80;95.30;;;;;;5105510;27;20382;-78
2021/01/08 11:46:23;;;;;;;2.20;1.50;;;4.80;95.30;;;;;;5072343;28;20035;-78
2021/01/08 11:48:52;;;;;;;3.05;1.60;;;4.90;95.30;;;;;;5086188;28;20045;-78
2021/01/08 11:51:20;;;;;;;2.08;1.42;;;4.90;95.20;;;;;;5071974;28;20046;-78
2021/01/08 11:53:47;;;;;;;3.15;1.55;;;4.90;95.20;;;;;;5088556;28;20362;-79
2021/01/08 11:56:14;;;;;;;2.50;1.30;;;5.00;95.00;;;;;;5089996;28;20048;-79
2021/01/08 11:58:43;;;;;;;3.10;1.50;;;5.00;95.10;;;;;;5087614;28;20039;-78
2021/01/08 12:01:10;;;;;;;6.65;4.47;;;5.00;95.10;;;;;;5102672;28;20054;-79
2021/01/08 12:03:39;;;;;;;7.57;5.47;;;5.00;94.90;;;;;;5070679;28;20034;-78
2021/01/08 12:06:06;;;;;;;4.03;2.42;;;5.00;95.00;;;;;;5089751;28;20470;-78
2021/01/08 12:08:34;;;;;;;4.20;1.88;;;5.10;95.00;;;;;;5107458;28;20445;-78
2021/01/08 12:11:01;;;;;;;2.33;1.70;;;5.10;95.00;;;;;;5088399;28;20047;-78
2021/01/08 12:13:28;;;;;;;2.20;1.58;;;5.10;95.00;;;;;;5106125;28;20031;-79
2021/01/08 12:15:54;;;;;;;2.53;1.30;;;5.10;95.00;;;;;;5072328;28;20379;-78
2021/01/08 12:18:21;;;;;;;2.17;1.10;;;5.10;94.70;;;;;;5068861;28;20032;-77
2021/01/08 12:20:48;;;;;;;3.03;1.20;;;5.10;94.80;;;;;;5069869;28;20058;-77
2021/01/08 12:23:15;;;;;;;3.07;1.87;;;5.10;95.00;;;;;;5104508;28;20050;-77
2021/01/08 12:25:42;;;;;;;2.35;1.55;;;5.00;94.40;;;;;;5123272;28;20062;-77
2021/01/08 12:28:10;;;;;;;2.00;1.10;;;5.00;94.40;;;;;;5087746;27;20405;-77
2021/01/08 12:30:39;;;;;;;1.80;1.00;;;5.00;94.20;;;;;;5072864;27;20082;-77
2021/01/08 12:33:06;;;;;;;2.30;1.10;;;4.90;94.30;;;;;;5075539;27;20039;-77
2021/01/08 12:35:32;;;;;;;1.70;1.00;;;5.00;94.40;;;;;;5077233;27;20054;-77
2021/01/08 12:37:59;;;;;;;1.52;0.88;;;5.00;94.40;;;;;;5109338;27;20035;-77
2021/01/08 12:40:26;;;;;;;2.20;1.00;;;5.10;94.40;;;;;;5125256;27;20043;-77
2021/01/08 12:42:53;;;;;;;1.85;0.75;;;5.20;94.40;;;;;;5090184;27;20032;-78
2021/01/08 12:45:22;;;;;;;2.03;1.07;;;5.30;94.40;;;;;;5090109;27;20057;-80
2021/01/08 12:47:49;;;;;;;1.55;0.70;;;5.30;94.30;;;;;;5109236;27;20403;-77
2021/01/08 12:50:19;;;;;;;2.00;0.60;;;5.30;94.20;;;;;;5108412;27;20031;-78
2021/01/08 12:52:46;;;;;;;1.75;0.90;;;5.30;94.30;;;;;;5071929;27;20041;-79
2021/01/08 12:55:13;;;;;;;1.77;1.20;;;5.30;94.40;;;;;;5058114;27;20402;-78
2021/01/08 12:57:40;;;;;;;1.75;0.93;;;5.30;94.30;;;;;;5109707;27;20031;-83
2021/01/08 13:00:08;;;;;;;2.80;1.50;;;5.30;94.00;;;;;;5089687;27;20539;-78
2021/01/08 13:02:37;;;;;;;2.70;1.77;;;5.20;93.80;;;;;;5108458;27;20058;-77
2021/01/08 13:05:04;;;;;;;2.80;1.77;;;5.10;93.70;;;;;;5074783;27;20157;-83
2021/01/08 13:07:31;;;;;;;2.60;1.90;;;5.00;93.60;;;;;;5091257;27;20038;-84